sensor_id;sensor_type;location;lat;lon;timestamp;pressure;altitude;pressure_sealevel;temperature;humidity
51099;BME280;37146;48.210;16.234;2023-05-02T00:02:05;98738.63;;;10.60;96.31
51099;BME280;37146;48.210;16.234;2023-05-02T00:04:31;98733.72;;;10.52;96.28
51099;BME280;37146;48.210;16.234;2023-05-02T00:06:56;98736.91;;;10.59;96.37
51099;BME280;37146;48.210;16.234;2023-05-02T00:09:22;98734.66;;;10.51;96.15
51099;BME280;37146;48.210;16.234;2023-05-02T00:11:47;98746.56;;;10.45;96.56
51099;BME280;37146;48.210;16.234;2023-05-02T00:14:12;98749.03;;;10.32;97.99
51099;BME280;37146;48.210;16.234;2023-05-02T00:16:37;98749.88;;;10.33;100.00
51099;BME280;37146;48.210;16.234;2023-05-02T00:19:03;98747.88;;;10.36;99.86
51099;BME280;37146;48.210;16.234;2023-05-02T00:21:28;98747.13;;;10.18;99.59
51099;BME280;37146;48.210;16.234;2023-05-02T00:23:56;98745.66;;;10.29;100.00
51099;BME280;37146;48.210;16.234;2023-05-02T00:26:22;98743.25;;;10.24;99.95
51099;BME280;37146;48.210;16.234;2023-05-02T00:28:47;98742.72;;;10.17;99.83
51099;BME280;37146;48.210;16.234;2023-05-02T00:31:12;98740.97;;;10.16;100.00
51099;BME280;37146;48.210;16.234;2023-05-02T00:33:38;98739.78;;;10.22;100.00
51099;BME280;37146;48.210;16.234;2023-05-02T00:36:03;98746.38;;;10.15;100.00
51099;BME280;37146;48.210;16.234;2023-05-02T00:38:28;98742.44;;;10.06;100.00
51099;BME280;37146;48.210;16.234;2023-05-02T00:40:54;98741.50;;;10.07;100.00
51099;BME280;37146;48.210;16.234;2023-05-02T00:43:19;98742.22;;;9.93;100.00
51099;BME280;37146;48.210;16.234;2023-05-02T00:45:45;98740.97;;;9.83;100.00
51099;BME280;37146;48.210;16.234;2023-05-02T00:48:10;98741.59;;;9.88;100.00
51099;BME280;37146;48.210;16.234;2023-05-02T00:50:36;98737.19;;;9.87;100.00
51099;BME280;37146;48.210;16.234;2023-05-02T00:53:02;98740.91;;;9.84;100.00
51099;BME280;37146;48.210;16.234;2023-05-02T00:55:27;98740.22;;;9.81;100.00
51099;BME280;37146;48.210;16.234;2023-05-02T00:57:53;98749.53;;;9.89;100.00
51099;BME280;37146;48.210;16.234;2023-05-02T01:00:18;98752.81;;;9.95;100.00
51099;BME280;37146;48.210;16.234;2023-05-02T01:02:56;98750.84;;;9.98;100.00
51099;BME280;37146;48.210;16.234;2023-05-02T01:05:29;98749.38;;;9.93;100.00
51099;BME280;37146;48.210;16.234;2023-05-02T01:08:16;98756.88;;;10.02;100.00
51099;BME280;37146;48.210;16.234;2023-05-02T01:11:02;98752.19;;;10.07;100.00
51099;BME280;37146;48.210;16.234;2023-05-02T01:13:31;98751.72;;;10.15;100.00
51099;BME280;37146;48.210;16.234;2023-05-02T01:15:57;98752.38;;;10.20;100.00
51099;BME280;37146;48.210;16.234;2023-05-02T01:18:25;98754.25;;;10.18;100.00
51099;BME280;37146;48.210;16.234;2023-05-02T01:21:03;98755.53;;;10.11;100.00
51099;BME280;37146;48.210;16.234;2023-05-02T01:23:44;98758.34;;;10.25;100.00
51099;BME280;37146;48.210;16.234;2023-05-02T01:26:16;98764.50;;;10.43;100.00
51099;BME280;37146;48.210;16.234;2023-05-02T01:31:07;98763.91;;;10.54;100.00
51099;BME280;37146;48.210;16.234;2023-05-02T01:33:32;98769.53;;;10.65;100.00
51099;BME280;37146;48.210;16.234;2023-05-02T01:35:59;98762.06;;;11.03;100.00
51099;BME280;37146;48.210;16.234;2023-05-02T01:38:25;98758.94;;;11.10;100.00
51099;BME280;37146;48.210;16.234;2023-05-02T01:40:52;98759.97;;;11.24;100.00
51099;BME280;37146;48.210;16.234;2023-05-02T01:43:18;98753.16;;;11.49;100.00
51099;BME280;37146;48.210;16.234;2023-05-02T01:45:44;98751.00;;;11.55;100.00
51099;BME280;37146;48.210;16.234;2023-05-02T01:48:11;98757.97;;;11.58;100.00
51099;BME280;37146;48.210;16.234;2023-05-02T01:50:38;98756.94;;;11.75;100.00
51099;BME280;37146;48.210;16.234;2023-05-02T01:53:05;98761.53;;;11.73;100.00
51099;BME280;37146;48.210;16.234;2023-05-02T01:55:32;98760.19;;;11.80;99.60
51099;BME280;37146;48.210;16.234;2023-05-02T01:57:59;98760.19;;;11.80;99.58
51099;BME280;37146;48.210;16.234;2023-05-02T02:00:25;98769.00;;;11.82;98.71
51099;BME280;37146;48.210;16.234;2023-05-02T02:02:51;98763.19;;;11.90;97.56
51099;BME280;37146;48.210;16.234;2023-05-02T02:05:18;98760.41;;;11.91;97.67
51099;BME280;37146;48.210;16.234;2023-05-02T02:07:44;98760.22;;;11.95;95.97
51099;BME280;37146;48.210;16.234;2023-05-02T02:10:09;98763.53;;;12.00;95.43
51099;BME280;37146;48.210;16.234;2023-05-02T02:12:37;98771.56;;;12.00;95.37
51099;BME280;37146;48.210;16.234;2023-05-02T02:17:31;98764.28;;;12.02;93.97
51099;BME280;37146;48.210;16.234;2023-05-02T02:20:00;98766.88;;;12.03;94.28
51099;BME280;37146;48.210;16.234;2023-05-02T02:22:27;98770.50;;;12.02;94.22
51099;BME280;37146;48.210;16.234;2023-05-02T02:24:53;98762.78;;;11.96;94.14
51099;BME280;37146;48.210;16.234;2023-05-02T02:27:18;98768.88;;;12.00;94.26
51099;BME280;37146;48.210;16.234;2023-05-02T02:29:44;98772.53;;;11.99;94.31
51099;BME280;37146;48.210;16.234;2023-05-02T02:32:09;98765.91;;;12.04;93.78
51099;BME280;37146;48.210;16.234;2023-05-02T02:34:34;98765.44;;;11.98;94.45
51099;BME280;37146;48.210;16.234;2023-05-02T02:37:01;98767.31;;;11.96;94.22
51099;BME280;37146;48.210;16.234;2023-05-02T02:42:09;98778.41;;;11.89;95.18
51099;BME280;37146;48.210;16.234;2023-05-02T02:55:16;98778.97;;;11.95;95.63
51099;BME280;37146;48.210;16.234;2023-05-02T02:57:40;98784.63;;;11.90;96.08
51099;BME280;37146;48.210;16.234;2023-05-02T03:00:18;98785.28;;;11.94;96.25
51099;BME280;37146;48.210;16.234;2023-05-02T03:02:45;98783.06;;;11.86;96.04
51099;BME280;37146;48.210;16.234;2023-05-02T03:05:10;98790.38;;;11.84;97.47
51099;BME280;37146;48.210;16.234;2023-05-02T03:07:37;98790.00;;;11.90;96.55
51099;BME280;37146;48.210;16.234;2023-05-02T03:10:04;98789.13;;;11.89;96.10
51099;BME280;37146;48.210;16.234;2023-05-02T03:12:30;98788.66;;;11.83;96.80
51099;BME280;37146;48.210;16.234;2023-05-02T03:14:57;98796.22;;;11.90;96.32
51099;BME280;37146;48.210;16.234;2023-05-02T03:17:26;98803.50;;;11.88;97.10
51099;BME280;37146;48.210;16.234;2023-05-02T03:19:51;98805.56;;;11.83;97.09
51099;BME280;37146;48.210;16.234;2023-05-02T03:22:17;98805.19;;;11.75;96.86
51099;BME280;37146;48.210;16.234;2023-05-02T03:24:42;98806.16;;;11.88;95.99
51099;BME280;37146;48.210;16.234;2023-05-02T03:27:07;98809.41;;;11.79;96.98
51099;BME280;37146;48.210;16.234;2023-05-02T03:29:32;98804.06;;;11.79;97.04
51099;BME280;37146;48.210;16.234;2023-05-02T03:31:58;98805.75;;;11.80;97.21
51099;BME280;37146;48.210;16.234;2023-05-02T03:34:23;98799.84;;;11.89;95.60
51099;BME280;37146;48.210;16.234;2023-05-02T03:36:48;98801.94;;;11.84;96.18
51099;BME280;37146;48.210;16.234;2023-05-02T03:39:14;98808.34;;;11.82;96.31
51099;BME280;37146;48.210;16.234;2023-05-02T03:41:39;98803.66;;;11.85;95.92
51099;BME280;37146;48.210;16.234;2023-05-02T03:44:06;98803.34;;;11.75;96.49
51099;BME280;37146;48.210;16.234;2023-05-02T03:46:31;98806.97;;;11.74;96.94
51099;BME280;37146;48.210;16.234;2023-05-02T03:48:57;98807.34;;;11.68;96.77
51099;BME280;37146;48.210;16.234;2023-05-02T03:51:22;98803.22;;;11.63;97.55
51099;BME280;37146;48.210;16.234;2023-05-02T03:53:47;98813.56;;;11.69;97.18
51099;BME280;37146;48.210;16.234;2023-05-02T03:56:15;98818.25;;;11.65;97.62
51099;BME280;37146;48.210;16.234;2023-05-02T03:58:41;98817.41;;;11.65;97.50
51099;BME280;37146;48.210;16.234;2023-05-02T04:01:12;98831.25;;;11.57;98.57
51099;BME280;37146;48.210;16.234;2023-05-02T04:03:37;98826.94;;;11.54;99.17
51099;BME280;37146;48.210;16.234;2023-05-02T04:06:02;98822.59;;;11.68;98.17
51099;BME280;37146;48.210;16.234;2023-05-02T04:08:27;98833.06;;;11.56;99.30
51099;BME280;37146;48.210;16.234;2023-05-02T04:10:53;98838.31;;;11.58;99.20
51099;BME280;37146;48.210;16.234;2023-05-02T04:13:18;98835.19;;;11.66;98.21
51099;BME280;37146;48.210;16.234;2023-05-02T04:15:44;98839.84;;;11.78;96.56
51099;BME280;37146;48.210;16.234;2023-05-02T04:18:09;98833.53;;;11.79;98.01
51099;BME280;37146;48.210;16.234;2023-05-02T04:20:34;98841.56;;;11.79;97.95
51099;BME280;37146;48.210;16.234;2023-05-02T04:22:59;98843.97;;;11.84;97.87
51099;BME280;37146;48.210;16.234;2023-05-02T04:25:25;98850.34;;;11.81;97.98
51099;BME280;37146;48.210;16.234;2023-05-02T04:27:50;98857.25;;;11.85;98.54
51099;BME280;37146;48.210;16.234;2023-05-02T04:30:15;98854.13;;;11.93;97.76
51099;BME280;37146;48.210;16.234;2023-05-02T04:32:40;98856.31;;;11.86;98.47
51099;BME280;37146;48.210;16.234;2023-05-02T04:35:06;98860.34;;;11.94;98.24
51099;BME280;37146;48.210;16.234;2023-05-02T04:37:31;98864.06;;;11.91;98.97
51099;BME280;37146;48.210;16.234;2023-05-02T04:39:56;98866.22;;;12.00;97.48
51099;BME280;37146;48.210;16.234;2023-05-02T04:42:22;98860.69;;;12.03;97.34
51099;BME280;37146;48.210;16.234;2023-05-02T04:44:47;98864.44;;;12.01;98.31
51099;BME280;37146;48.210;16.234;2023-05-02T04:47:13;98870.38;;;12.06;97.63
51099;BME280;37146;48.210;16.234;2023-05-02T04:49:38;98875.72;;;12.06;98.38
51099;BME280;37146;48.210;16.234;2023-05-02T04:52:04;98879.34;;;12.05;98.62
51099;BME280;37146;48.210;16.234;2023-05-02T04:54:31;98875.63;;;12.07;98.40
51099;BME280;37146;48.210;16.234;2023-05-02T04:56:56;98879.00;;;12.11;97.83
51099;BME280;37146;48.210;16.234;2023-05-02T04:59:21;98878.78;;;12.14;96.47
51099;BME280;37146;48.210;16.234;2023-05-02T05:01:46;98879.28;;;12.21;96.70
51099;BME280;37146;48.210;16.234;2023-05-02T05:04:12;98882.56;;;12.26;96.03
51099;BME280;37146;48.210;16.234;2023-05-02T05:06:37;98881.13;;;12.35;95.55
51099;BME280;37146;48.210;16.234;2023-05-02T05:09:02;98881.63;;;12.42;95.03
51099;BME280;37146;48.210;16.234;2023-05-02T05:11:27;98886.50;;;12.49;94.53
51099;BME280;37146;48.210;16.234;2023-05-02T05:13:53;98893.69;;;12.63;93.93
51099;BME280;37146;48.210;16.234;2023-05-02T05:16:18;98899.34;;;12.59;94.79
51099;BME280;37146;48.210;16.234;2023-05-02T05:18:43;98892.06;;;12.61;94.64
51099;BME280;37146;48.210;16.234;2023-05-02T05:21:09;98892.84;;;12.63;94.65
51099;BME280;37146;48.210;16.234;2023-05-02T05:23:34;98904.34;;;12.65;94.02
51099;BME280;37146;48.210;16.234;2023-05-02T05:26:09;98899.38;;;12.73;94.03
51099;BME280;37146;48.210;16.234;2023-05-02T05:28:35;98895.91;;;12.71;94.51
51099;BME280;37146;48.210;16.234;2023-05-02T05:31:04;98904.44;;;12.78;94.64
51099;BME280;37146;48.210;16.234;2023-05-02T05:33:30;98900.31;;;12.72;94.43
51099;BME280;37146;48.210;16.234;2023-05-02T05:35:56;98895.31;;;12.80;93.69
51099;BME280;37146;48.210;16.234;2023-05-02T05:38:21;98903.78;;;12.89;94.00
51099;BME280;37146;48.210;16.234;2023-05-02T05:40:48;98904.94;;;12.99;94.36
51099;BME280;37146;48.210;16.234;2023-05-02T05:43:13;98903.28;;;12.96;93.06
51099;BME280;37146;48.210;16.234;2023-05-02T05:45:38;98904.53;;;13.05;93.01
51099;BME280;37146;48.210;16.234;2023-05-02T05:48:03;98903.25;;;13.11;92.70
51099;BME280;37146;48.210;16.234;2023-05-02T05:50:29;98914.06;;;13.24;92.11
51099;BME280;37146;48.210;16.234;2023-05-02T05:52:54;98913.34;;;13.22;93.20
51099;BME280;37146;48.210;16.234;2023-05-02T05:55:19;98909.69;;;13.23;92.12
51099;BME280;37146;48.210;16.234;2023-05-02T05:57:44;98922.81;;;13.27;91.83
51099;BME280;37146;48.210;16.234;2023-05-02T06:00:10;98919.66;;;13.21;91.48
51099;BME280;37146;48.210;16.234;2023-05-02T06:02:35;98924.75;;;13.25;92.19
51099;BME280;37146;48.210;16.234;2023-05-02T06:05:01;98927.47;;;13.38;92.35
51099;BME280;37146;48.210;16.234;2023-05-02T06:07:26;98930.09;;;13.40;92.15
51099;BME280;37146;48.210;16.234;2023-05-02T06:09:51;98931.34;;;13.49;90.66
51099;BME280;37146;48.210;16.234;2023-05-02T06:12:16;98924.75;;;13.67;89.82
51099;BME280;37146;48.210;16.234;2023-05-02T06:14:42;98935.25;;;13.57;89.52
51099;BME280;37146;48.210;16.234;2023-05-02T06:17:07;98931.53;;;13.73;89.11
51099;BME280;37146;48.210;16.234;2023-05-02T06:19:32;98932.97;;;13.79;89.18
51099;BME280;37146;48.210;16.234;2023-05-02T06:21:57;98939.16;;;13.66;88.32
51099;BME280;37146;48.210;16.234;2023-05-02T06:24:22;98932.31;;;13.75;89.01
51099;BME280;37146;48.210;16.234;2023-05-02T06:26:48;98943.34;;;13.70;88.22
51099;BME280;37146;48.210;16.234;2023-05-02T06:29:13;98939.88;;;13.83;88.13
51099;BME280;37146;48.210;16.234;2023-05-02T06:31:38;98942.81;;;13.65;88.17
51099;BME280;37146;48.210;16.234;2023-05-02T06:34:03;98942.19;;;13.74;88.26
51099;BME280;37146;48.210;16.234;2023-05-02T06:36:28;98948.19;;;13.65;88.57
51099;BME280;37146;48.210;16.234;2023-05-02T06:38:55;98957.38;;;13.75;88.10
51099;BME280;37146;48.210;16.234;2023-05-02T06:41:20;98952.22;;;13.85;88.64
51099;BME280;37146;48.210;16.234;2023-05-02T06:43:46;98945.91;;;13.86;87.98
51099;BME280;37146;48.210;16.234;2023-05-02T06:46:11;98950.00;;;13.92;88.44
51099;BME280;37146;48.210;16.234;2023-05-02T06:48:36;98944.22;;;13.98;87.21
51099;BME280;37146;48.210;16.234;2023-05-02T06:51:01;98951.56;;;14.09;88.26
51099;BME280;37146;48.210;16.234;2023-05-02T06:53:28;98959.00;;;14.18;88.19
51099;BME280;37146;48.210;16.234;2023-05-02T06:55:53;98958.28;;;14.16;86.45
51099;BME280;37146;48.210;16.234;2023-05-02T06:58:18;98963.28;;;14.08;86.87
51099;BME280;37146;48.210;16.234;2023-05-02T07:00:43;98961.03;;;14.15;85.85
51099;BME280;37146;48.210;16.234;2023-05-02T07:03:09;98968.09;;;14.30;86.43
51099;BME280;37146;48.210;16.234;2023-05-02T07:05:37;98970.44;;;14.22;85.36
51099;BME280;37146;48.210;16.234;2023-05-02T07:08:03;98968.16;;;14.16;84.49
51099;BME280;37146;48.210;16.234;2023-05-02T07:10:28;98977.59;;;14.09;85.66
51099;BME280;37146;48.210;16.234;2023-05-02T07:12:53;98971.34;;;14.08;85.59
51099;BME280;37146;48.210;16.234;2023-05-02T07:15:19;98970.00;;;14.28;84.74
51099;BME280;37146;48.210;16.234;2023-05-02T07:17:44;98976.41;;;14.13;84.54
51099;BME280;37146;48.210;16.234;2023-05-02T07:20:11;98980.63;;;14.17;84.67
51099;BME280;37146;48.210;16.234;2023-05-02T07:22:36;98979.88;;;14.15;84.10
51099;BME280;37146;48.210;16.234;2023-05-02T07:25:02;98976.34;;;14.27;85.00
51099;BME280;37146;48.210;16.234;2023-05-02T07:27:27;98976.34;;;14.27;84.04
51099;BME280;37146;48.210;16.234;2023-05-02T07:29:52;98977.25;;;14.41;84.15
51099;BME280;37146;48.210;16.234;2023-05-02T07:32:18;98988.22;;;14.50;84.06
51099;BME280;37146;48.210;16.234;2023-05-02T07:34:45;98986.22;;;14.54;85.02
51099;BME280;37146;48.210;16.234;2023-05-02T07:37:10;98986.09;;;14.56;84.85
51099;BME280;37146;48.210;16.234;2023-05-02T07:39:36;98996.44;;;14.62;83.64
51099;BME280;37146;48.210;16.234;2023-05-02T07:42:01;98999.03;;;14.63;85.10
51099;BME280;37146;48.210;16.234;2023-05-02T07:44:27;99001.34;;;14.42;84.02
51099;BME280;37146;48.210;16.234;2023-05-02T07:46:53;99004.22;;;14.26;82.51
51099;BME280;37146;48.210;16.234;2023-05-02T07:49:18;99002.59;;;14.64;83.71
51099;BME280;37146;48.210;16.234;2023-05-02T07:51:43;99008.28;;;14.59;83.56
51099;BME280;37146;48.210;16.234;2023-05-02T07:56:41;99004.34;;;14.78;83.40
51099;BME280;37146;48.210;16.234;2023-05-02T07:59:06;99014.38;;;14.76;83.60
51099;BME280;37146;48.210;16.234;2023-05-02T08:01:31;99014.81;;;14.82;82.17
51099;BME280;37146;48.210;16.234;2023-05-02T08:03:56;99005.75;;;14.83;83.68
51099;BME280;37146;48.210;16.234;2023-05-02T08:06:22;99020.34;;;14.66;83.85
51099;BME280;37146;48.210;16.234;2023-05-02T08:08:47;99022.53;;;14.74;83.75
51099;BME280;37146;48.210;16.234;2023-05-02T08:11:12;99023.22;;;14.50;83.72
51099;BME280;37146;48.210;16.234;2023-05-02T08:13:37;99026.88;;;14.77;84.89
51099;BME280;37146;48.210;16.234;2023-05-02T08:16:03;99023.19;;;14.78;84.00
51099;BME280;37146;48.210;16.234;2023-05-02T08:18:28;99023.88;;;14.94;84.67
51099;BME280;37146;48.210;16.234;2023-05-02T08:20:54;99019.75;;;15.02;81.93
51099;BME280;37146;48.210;16.234;2023-05-02T08:23:19;99021.50;;;15.03;82.83
51099;BME280;37146;48.210;16.234;2023-05-02T08:25:44;99027.53;;;14.80;82.84
51099;BME280;37146;48.210;16.234;2023-05-02T08:28:10;99025.81;;;14.92;81.67
51099;BME280;37146;48.210;16.234;2023-05-02T08:30:35;99023.88;;;14.81;80.23
51099;BME280;37146;48.210;16.234;2023-05-02T08:33:00;99023.84;;;15.07;81.79
51099;BME280;37146;48.210;16.234;2023-05-02T08:35:27;99025.03;;;14.77;80.03
51099;BME280;37146;48.210;16.234;2023-05-02T08:37:53;99034.41;;;14.84;81.44
51099;BME280;37146;48.210;16.234;2023-05-02T08:40:18;99037.41;;;14.80;82.08
51099;BME280;37146;48.210;16.234;2023-05-02T08:42:44;99037.84;;;14.87;82.42
51099;BME280;37146;48.210;16.234;2023-05-02T08:45:10;99037.31;;;15.07;80.96
51099;BME280;37146;48.210;16.234;2023-05-02T08:47:37;99039.16;;;14.94;79.63
51099;BME280;37146;48.210;16.234;2023-05-02T08:50:03;99049.72;;;14.97;80.54
51099;BME280;37146;48.210;16.234;2023-05-02T08:52:29;99041.50;;;14.86;79.97
51099;BME280;37146;48.210;16.234;2023-05-02T08:54:56;99042.41;;;14.86;79.74
51099;BME280;37146;48.210;16.234;2023-05-02T08:57:22;99051.00;;;14.91;82.50
51099;BME280;37146;48.210;16.234;2023-05-02T08:59:47;99048.94;;;14.82;81.00
51099;BME280;37146;48.210;16.234;2023-05-02T09:02:26;99048.41;;;14.77;80.16
51099;BME280;37146;48.210;16.234;2023-05-02T09:04:54;99043.25;;;14.99;79.92
51099;BME280;37146;48.210;16.234;2023-05-02T09:07:20;99051.75;;;14.93;81.14
51099;BME280;37146;48.210;16.234;2023-05-02T09:09:46;99050.59;;;14.97;81.14
51099;BME280;37146;48.210;16.234;2023-05-02T09:12:11;99053.38;;;14.96;81.65
51099;BME280;37146;48.210;16.234;2023-05-02T09:14:37;99051.69;;;15.08;80.55
51099;BME280;37146;48.210;16.234;2023-05-02T09:17:02;99054.47;;;15.06;80.50
51099;BME280;37146;48.210;16.234;2023-05-02T09:19:27;99058.13;;;15.18;80.92
51099;BME280;37146;48.210;16.234;2023-05-02T09:21:58;99055.13;;;15.10;81.20
51099;BME280;37146;48.210;16.234;2023-05-02T09:24:24;99045.31;;;15.09;79.50
51099;BME280;37146;48.210;16.234;2023-05-02T09:27:02;99049.50;;;15.13;80.42
51099;BME280;37146;48.210;16.234;2023-05-02T09:29:28;99039.50;;;15.15;80.09
51099;BME280;37146;48.210;16.234;2023-05-02T09:31:59;99044.97;;;15.26;80.56
51099;BME280;37146;48.210;16.234;2023-05-02T09:34:24;99045.72;;;15.41;77.72
51099;BME280;37146;48.210;16.234;2023-05-02T09:36:50;99041.94;;;15.57;77.92
51099;BME280;37146;48.210;16.234;2023-05-02T09:39:16;99047.75;;;15.64;77.14
51099;BME280;37146;48.210;16.234;2023-05-02T09:41:43;99049.66;;;15.74;77.26
51099;BME280;37146;48.210;16.234;2023-05-02T09:44:10;99053.44;;;15.85;79.18
51099;BME280;37146;48.210;16.234;2023-05-02T09:46:39;99053.88;;;15.79;76.30
51099;BME280;37146;48.210;16.234;2023-05-02T09:49:05;99052.59;;;15.84;77.31
51099;BME280;37146;48.210;16.234;2023-05-02T09:51:31;99051.75;;;16.08;76.64
51099;BME280;37146;48.210;16.234;2023-05-02T09:53:56;99058.75;;;15.86;77.33
51099;BME280;37146;48.210;16.234;2023-05-02T09:56:21;99064.72;;;15.40;77.76
51099;BME280;37146;48.210;16.234;2023-05-02T09:58:46;99063.75;;;15.41;80.13
51099;BME280;37146;48.210;16.234;2023-05-02T10:01:15;99073.50;;;14.90;81.63
51099;BME280;37146;48.210;16.234;2023-05-02T10:03:41;99077.59;;;14.83;80.90
51099;BME280;37146;48.210;16.234;2023-05-02T10:06:07;99074.91;;;14.83;82.19
51099;BME280;37146;48.210;16.234;2023-05-02T10:08:33;99070.53;;;15.08;82.74
51099;BME280;37146;48.210;16.234;2023-05-02T10:10:59;99066.97;;;15.20;81.27
51099;BME280;37146;48.210;16.234;2023-05-02T10:13:25;99066.94;;;15.46;81.64
51099;BME280;37146;48.210;16.234;2023-05-02T10:15:59;99065.34;;;15.05;81.35
51099;BME280;37146;48.210;16.234;2023-05-02T10:18:28;99078.38;;;15.37;82.23
51099;BME280;37146;48.210;16.234;2023-05-02T10:20:58;99076.03;;;15.19;82.09
51099;BME280;37146;48.210;16.234;2023-05-02T10:23:28;99080.97;;;15.12;82.11
51099;BME280;37146;48.210;16.234;2023-05-02T10:25:54;99086.00;;;14.91;84.19
51099;BME280;37146;48.210;16.234;2023-05-02T10:28:19;99085.94;;;14.93;83.97
51099;BME280;37146;48.210;16.234;2023-05-02T10:30:45;99088.44;;;14.68;82.93
51099;BME280;37146;48.210;16.234;2023-05-02T10:33:14;99089.97;;;14.73;84.05
51099;BME280;37146;48.210;16.234;2023-05-02T10:35:42;99080.84;;;14.88;84.18
51099;BME280;37146;48.210;16.234;2023-05-02T10:38:08;99087.09;;;15.02;83.89
51099;BME280;37146;48.210;16.234;2023-05-02T10:40:34;99078.16;;;15.27;84.81
51099;BME280;37146;48.210;16.234;2023-05-02T10:42:59;99082.06;;;15.10;84.39
51099;BME280;37146;48.210;16.234;2023-05-02T10:45:29;99084.84;;;14.95;84.96
51099;BME280;37146;48.210;16.234;2023-05-02T10:48:11;99089.16;;;15.11;85.64
51099;BME280;37146;48.210;16.234;2023-05-02T10:50:43;99100.03;;;15.22;84.32
51099;BME280;37146;48.210;16.234;2023-05-02T10:53:23;99104.22;;;14.60;86.08
51099;BME280;37146;48.210;16.234;2023-05-02T10:58:32;99115.41;;;14.54;87.20
51099;BME280;37146;48.210;16.234;2023-05-02T11:01:42;99106.00;;;14.47;87.78
51099;BME280;37146;48.210;16.234;2023-05-02T11:04:04;99110.09;;;14.52;87.66
51099;BME280;37146;48.210;16.234;2023-05-02T11:06:29;99102.34;;;14.48;87.02
51099;BME280;37146;48.210;16.234;2023-05-02T11:11:45;99096.66;;;14.25;87.30
51099;BME280;37146;48.210;16.234;2023-05-02T11:19:28;99106.09;;;14.45;88.45
51099;BME280;37146;48.210;16.234;2023-05-02T11:22:39;99101.84;;;14.28;89.43
51099;BME280;37146;48.210;16.234;2023-05-02T11:24:40;99099.09;;;14.43;88.47
51099;BME280;37146;48.210;16.234;2023-05-02T11:29:56;99112.16;;;14.49;89.00
51099;BME280;37146;48.210;16.234;2023-05-02T11:32:21;99117.50;;;14.21;86.76
51099;BME280;37146;48.210;16.234;2023-05-02T11:34:47;99107.38;;;14.40;87.63
51099;BME280;37146;48.210;16.234;2023-05-02T11:37:16;99105.16;;;14.46;87.02
51099;BME280;37146;48.210;16.234;2023-05-02T11:39:42;99100.22;;;14.53;86.96
51099;BME280;37146;48.210;16.234;2023-05-02T11:42:07;99102.28;;;14.62;85.81
51099;BME280;37146;48.210;16.234;2023-05-02T11:44:32;99102.47;;;14.74;87.91
51099;BME280;37146;48.210;16.234;2023-05-02T11:46:58;99096.13;;;14.88;86.88
51099;BME280;37146;48.210;16.234;2023-05-02T11:49:24;99099.72;;;14.88;85.36
51099;BME280;37146;48.210;16.234;2023-05-02T11:51:50;99106.72;;;14.63;84.61
51099;BME280;37146;48.210;16.234;2023-05-02T11:54:18;99100.31;;;14.79;86.43
51099;BME280;37146;48.210;16.234;2023-05-02T11:56:44;99089.38;;;15.08;85.10
51099;BME280;37146;48.210;16.234;2023-05-02T11:59:10;99100.28;;;15.19;83.19
51099;BME280;37146;48.210;16.234;2023-05-02T12:01:35;99098.88;;;15.39;84.70
51099;BME280;37146;48.210;16.234;2023-05-02T12:04:04;99096.50;;;15.48;82.52
51099;BME280;37146;48.210;16.234;2023-05-02T12:06:31;99098.22;;;15.36;81.47
51099;BME280;37146;48.210;16.234;2023-05-02T12:09:13;99102.34;;;15.15;81.34
51099;BME280;37146;48.210;16.234;2023-05-02T12:11:40;99104.59;;;15.35;81.20
51099;BME280;37146;48.210;16.234;2023-05-02T12:14:05;99096.94;;;15.41;80.82
51099;BME280;37146;48.210;16.234;2023-05-02T12:16:30;99101.66;;;15.51;79.91
51099;BME280;37146;48.210;16.234;2023-05-02T12:18:56;99096.84;;;15.43;81.44
51099;BME280;37146;48.210;16.234;2023-05-02T12:21:23;99096.84;;;15.43;82.48
51099;BME280;37146;48.210;16.234;2023-05-02T12:23:49;99097.16;;;15.51;80.28
51099;BME280;37146;48.210;16.234;2023-05-02T12:26:23;99104.06;;;15.29;79.40
51099;BME280;37146;48.210;16.234;2023-05-02T12:28:51;99107.81;;;15.27;79.70
51099;BME280;37146;48.210;16.234;2023-05-02T12:31:18;99104.66;;;14.94;80.22
51099;BME280;37146;48.210;16.234;2023-05-02T12:33:44;99107.25;;;14.96;80.36
51099;BME280;37146;48.210;16.234;2023-05-02T12:36:12;99115.56;;;15.06;80.97
51099;BME280;37146;48.210;16.234;2023-05-02T12:38:37;99119.66;;;15.11;80.72
51099;BME280;37146;48.210;16.234;2023-05-02T12:41:02;99116.28;;;14.95;79.88
51099;BME280;37146;48.210;16.234;2023-05-02T12:43:27;99116.88;;;14.73;81.13
51099;BME280;37146;48.210;16.234;2023-05-02T12:46:09;99124.03;;;14.59;81.43
51099;BME280;37146;48.210;16.234;2023-05-02T12:48:35;99118.81;;;14.71;81.76
51099;BME280;37146;48.210;16.234;2023-05-02T12:51:00;99124.41;;;14.67;82.55
51099;BME280;37146;48.210;16.234;2023-05-02T12:53:41;99117.16;;;14.82;81.66
51099;BME280;37146;48.210;16.234;2023-05-02T12:56:07;99118.63;;;14.87;82.72
51099;BME280;37146;48.210;16.234;2023-05-02T12:58:40;99120.53;;;14.72;81.98
51099;BME280;37146;48.210;16.234;2023-05-02T13:01:07;99117.25;;;14.94;82.46
51099;BME280;37146;48.210;16.234;2023-05-02T13:03:32;99120.06;;;14.92;82.56
51099;BME280;37146;48.210;16.234;2023-05-02T13:05:57;99114.66;;;14.92;83.33
51099;BME280;37146;48.210;16.234;2023-05-02T13:08:22;99118.94;;;14.82;82.65
51099;BME280;37146;48.210;16.234;2023-05-02T13:10:47;99115.63;;;14.78;82.73
51099;BME280;37146;48.210;16.234;2023-05-02T13:13:13;99120.34;;;14.75;83.64
51099;BME280;37146;48.210;16.234;2023-05-02T13:15:38;99120.75;;;14.68;84.32
51099;BME280;37146;48.210;16.234;2023-05-02T13:18:03;99119.00;;;14.67;84.16
51099;BME280;37146;48.210;16.234;2023-05-02T13:20:29;99124.59;;;14.64;84.29
51099;BME280;37146;48.210;16.234;2023-05-02T13:22:54;99128.25;;;14.63;86.22